createdAt,value
2019-03-22T00:00:52.865Z,2.70
2019-03-22T00:01:52.732Z,2.66
2019-03-22T00:02:52.601Z,2.61
2019-03-22T00:03:52.467Z,2.55
2019-03-22T00:04:52.338Z,2.56
2019-03-22T00:05:52.206Z,2.59
2019-03-22T00:06:52.073Z,2.64
2019-03-22T00:07:51.945Z,2.73
2019-03-22T00:08:51.811Z,2.63
2019-03-22T00:09:51.686Z,2.69
2019-03-22T00:10:51.545Z,2.69
2019-03-22T00:11:51.413Z,2.55
2019-03-22T00:12:51.288Z,2.61
2019-03-22T00:13:51.149Z,2.66
2019-03-22T00:14:51.021Z,2.56
2019-03-22T00:15:50.888Z,2.55
2019-03-22T00:16:50.755Z,2.52
2019-03-22T00:17:50.625Z,2.51
2019-03-22T00:18:50.498Z,2.69
2019-03-22T00:19:50.362Z,2.70
2019-03-22T00:20:50.236Z,2.58
2019-03-22T00:21:50.097Z,2.51
2019-03-22T00:22:49.965Z,2.46
2019-03-22T00:23:49.832Z,2.46
2019-03-22T00:24:49.703Z,2.41
2019-03-22T00:25:49.571Z,2.27
2019-03-22T00:26:49.441Z,2.30
2019-03-22T00:27:49.305Z,2.33
2019-03-22T00:28:49.178Z,2.52
2019-03-22T00:29:49.043Z,2.51
2019-03-22T00:30:48.911Z,2.46
2019-03-22T00:31:48.776Z,2.46
2019-03-22T00:32:48.651Z,2.44
2019-03-22T00:33:48.514Z,2.46
2019-03-22T00:34:48.382Z,2.55
2019-03-22T00:35:48.252Z,2.49
2019-03-22T00:36:48.119Z,2.51
2019-03-22T00:37:47.986Z,2.52
2019-03-22T00:38:47.853Z,2.51
2019-03-22T00:39:47.722Z,2.49
2019-03-22T00:40:47.589Z,2.45
2019-03-22T00:41:47.457Z,2.41
2019-03-22T00:42:47.324Z,2.40
2019-03-22T00:43:47.193Z,2.48
2019-03-22T00:44:47.063Z,2.41
2019-03-22T00:45:46.930Z,2.40
2019-03-22T00:46:46.801Z,2.41
2019-03-22T00:47:46.669Z,2.41
2019-03-22T00:48:46.535Z,2.38
2019-03-22T00:49:46.402Z,2.45
2019-03-22T00:50:46.273Z,2.45
2019-03-22T00:51:46.137Z,2.40
2019-03-22T00:52:46.007Z,2.40
2019-03-22T00:53:45.874Z,2.48
2019-03-22T00:54:45.747Z,2.40
2019-03-22T00:55:45.611Z,2.30
2019-03-22T00:56:45.486Z,2.46
2019-03-22T00:57:45.344Z,2.37
2019-03-22T00:58:45.214Z,2.44
2019-03-22T00:59:45.080Z,2.38
2019-03-22T01:00:44.950Z,2.40
2019-03-22T01:01:44.819Z,2.31
2019-03-22T01:02:44.687Z,2.34
2019-03-22T01:03:44.556Z,2.30
2019-03-22T01:04:44.422Z,2.30
2019-03-22T01:05:44.290Z,2.28
2019-03-22T01:06:44.158Z,2.30
2019-03-22T01:07:44.027Z,2.38
2019-03-22T01:08:43.898Z,2.41
2019-03-22T01:09:43.764Z,2.28
2019-03-22T01:10:43.631Z,2.37
2019-03-22T01:11:43.499Z,2.23
2019-03-22T01:12:43.367Z,2.30
2019-03-22T01:13:43.235Z,2.26
2019-03-22T01:14:43.104Z,2.27
2019-03-22T01:15:42.971Z,2.22
2019-03-22T01:16:42.839Z,2.38
2019-03-22T01:17:42.705Z,2.37
2019-03-22T01:18:42.574Z,2.33
2019-03-22T01:19:42.443Z,2.27
2019-03-22T01:20:42.313Z,2.28
2019-03-22T01:21:42.177Z,2.31
2019-03-22T01:22:42.044Z,2.30
2019-03-22T01:23:41.915Z,2.34
2019-03-22T01:24:41.784Z,2.46
2019-03-22T01:25:41.649Z,2.40
2019-03-22T01:26:41.517Z,2.37
2019-03-22T01:27:41.622Z,2.41
2019-03-22T01:28:41.254Z,2.48
2019-03-22T01:29:41.121Z,2.59
2019-03-22T01:30:40.992Z,2.56
2019-03-22T01:31:40.856Z,2.58
2019-03-22T01:32:40.725Z,2.49
2019-03-22T01:33:40.591Z,2.49
2019-03-22T01:34:40.466Z,2.52
2019-03-22T01:35:40.332Z,2.56
2019-03-22T01:36:40.200Z,2.64
2019-03-22T01:37:40.065Z,2.59
2019-03-22T01:38:39.932Z,2.66
2019-03-22T01:39:39.803Z,2.46
2019-03-22T01:40:39.672Z,2.49
2019-03-22T01:41:39.534Z,2.52
2019-03-22T01:42:39.404Z,2.46
2019-03-22T01:43:39.273Z,2.44
2019-03-22T01:44:39.140Z,2.46
2019-03-22T01:45:39.009Z,2.51
2019-03-22T01:46:38.877Z,2.55
2019-03-22T01:47:38.749Z,2.58
2019-03-22T01:48:38.613Z,2.56
2019-03-22T01:49:38.482Z,2.48
2019-03-22T01:50:38.356Z,2.59
2019-03-22T01:51:38.220Z,2.48
2019-03-22T01:52:38.088Z,2.49
2019-03-22T01:53:37.951Z,2.48
2019-03-22T01:54:37.828Z,2.46
2019-03-22T01:55:37.687Z,2.49
2019-03-22T01:56:37.556Z,2.49
2019-03-22T01:57:37.425Z,2.52
2019-03-22T01:58:37.293Z,2.48
2019-03-22T01:59:37.162Z,2.40
2019-03-22T02:00:37.029Z,2.40
2019-03-22T02:01:36.899Z,2.28
2019-03-22T02:02:36.763Z,2.37
2019-03-22T02:03:36.635Z,2.48
2019-03-22T02:04:36.501Z,2.41
2019-03-22T02:05:36.366Z,2.31
2019-03-22T02:06:36.238Z,2.37
2019-03-22T02:07:36.105Z,2.35
2019-03-22T02:08:35.973Z,2.37
2019-03-22T02:09:35.843Z,2.35
2019-03-22T02:10:35.709Z,2.40
2019-03-22T02:11:35.577Z,2.38
2019-03-22T02:12:35.447Z,2.38
2019-03-22T02:13:35.311Z,2.52
2019-03-22T02:14:35.182Z,2.48
2019-03-22T02:15:35.049Z,2.49
2019-03-22T02:16:34.920Z,2.46
2019-03-22T02:17:34.786Z,2.46
2019-03-22T02:18:34.655Z,2.44
2019-03-22T02:19:34.521Z,2.45
2019-03-22T02:20:34.391Z,2.41
2019-03-22T02:21:34.258Z,2.41
2019-03-22T02:22:34.127Z,2.27
2019-03-22T02:23:33.996Z,2.31
2019-03-22T02:24:33.860Z,2.28
2019-03-22T02:25:33.733Z,2.10
2019-03-22T02:26:33.597Z,2.34
2019-03-22T02:27:33.463Z,2.38
2019-03-22T02:28:33.334Z,2.28
2019-03-22T02:29:33.199Z,2.45
2019-03-22T02:30:33.072Z,2.44
2019-03-22T02:31:32.937Z,2.31
2019-03-22T02:32:32.804Z,2.37
2019-03-22T02:33:32.675Z,2.40
2019-03-22T02:34:32.540Z,2.40
2019-03-22T02:35:32.412Z,2.30
2019-03-22T02:36:32.278Z,2.26
2019-03-22T02:37:32.145Z,2.34
2019-03-22T02:38:32.012Z,2.28
2019-03-22T02:39:31.974Z,2.28
2019-03-22T02:40:31.756Z,2.31
2019-03-22T02:41:31.616Z,2.48
2019-03-22T02:42:31.484Z,2.49
2019-03-22T02:43:31.356Z,2.48
2019-03-22T02:44:31.223Z,2.38
2019-03-22T02:45:31.087Z,2.31
2019-03-22T02:46:30.954Z,2.31
2019-03-22T02:47:30.842Z,2.28
2019-03-22T02:48:30.692Z,2.37
2019-03-22T02:49:30.559Z,2.41
2019-03-22T02:50:30.427Z,2.40
2019-03-22T02:51:30.303Z,2.40
2019-03-22T02:52:30.164Z,2.28
2019-03-22T02:53:30.029Z,2.30
2019-03-22T02:54:29.896Z,2.37
2019-03-22T02:55:29.769Z,2.37
2019-03-22T02:56:29.637Z,2.38
2019-03-22T02:57:29.501Z,2.34
2019-03-22T02:58:30.945Z,2.46
2019-03-22T02:59:29.239Z,2.52
2019-03-22T03:00:29.108Z,2.48
2019-03-22T03:01:28.975Z,2.53
2019-03-22T03:02:28.843Z,2.51
2019-03-22T03:03:28.710Z,2.55
2019-03-22T03:04:28.580Z,2.52
2019-03-22T03:05:28.444Z,2.49
2019-03-22T03:06:28.317Z,2.51
2019-03-22T03:07:28.181Z,2.37
2019-03-22T03:08:28.050Z,2.44
2019-03-22T03:09:27.918Z,2.40
2019-03-22T03:10:27.791Z,2.46
2019-03-22T03:11:27.656Z,2.44
2019-03-22T03:12:27.521Z,2.49
2019-03-22T03:13:27.500Z,2.45
2019-03-22T03:14:27.254Z,2.45
2019-03-22T03:15:27.124Z,2.48
2019-03-22T03:16:27.000Z,2.49
2019-03-22T03:17:26.860Z,2.49
2019-03-22T03:18:26.740Z,2.40
2019-03-22T03:19:26.595Z,2.41
2019-03-22T03:20:26.465Z,2.28
2019-03-22T03:21:26.332Z,2.30
2019-03-22T03:22:26.199Z,2.26
2019-03-22T03:23:26.069Z,2.34
2019-03-22T03:24:25.937Z,2.41
2019-03-22T03:25:25.805Z,2.41
2019-03-22T03:26:25.675Z,2.38
2019-03-22T03:27:25.541Z,2.38
2019-03-22T03:28:36.497Z,2.48
2019-03-22T03:29:25.282Z,2.41
2019-03-22T03:30:25.148Z,2.33
2019-03-22T03:31:25.048Z,2.28
2019-03-22T03:32:24.883Z,2.34
2019-03-22T03:33:24.749Z,2.31
2019-03-22T03:34:24.633Z,2.41
2019-03-22T03:35:24.489Z,2.38
2019-03-22T03:36:24.354Z,2.37
2019-03-22T03:37:24.220Z,2.44
2019-03-22T03:38:24.091Z,2.40
2019-03-22T03:39:23.963Z,2.40
2019-03-22T03:40:23.822Z,2.51
2019-03-22T03:41:23.691Z,2.52
2019-03-22T03:42:23.558Z,2.51
2019-03-22T03:43:23.437Z,2.49
2019-03-22T03:44:23.294Z,2.51
2019-03-22T03:45:23.163Z,2.46
2019-03-22T03:46:23.026Z,2.51
2019-03-22T03:47:22.897Z,2.45
2019-03-22T03:48:22.769Z,2.52
2019-03-22T03:49:23.540Z,2.52
2019-03-22T03:50:22.499Z,2.48
2019-03-22T03:51:22.367Z,2.51
2019-03-22T03:52:22.239Z,2.51
2019-03-22T03:53:22.104Z,2.58
2019-03-22T03:54:21.986Z,2.49
2019-03-22T03:55:21.842Z,2.38
2019-03-22T03:56:21.709Z,2.34
2019-03-22T03:57:21.582Z,2.31
2019-03-22T03:58:21.520Z,2.30
2019-03-22T03:59:21.317Z,2.44
2019-03-22T04:00:21.178Z,2.34
2019-03-22T04:01:21.048Z,2.52
2019-03-22T04:02:21.007Z,2.55
2019-03-22T04:03:20.784Z,2.52
2019-03-22T04:04:20.655Z,2.53
2019-03-22T04:05:20.531Z,2.52
2019-03-22T04:06:20.409Z,2.56
2019-03-22T04:07:20.253Z,2.41
2019-03-22T04:08:20.123Z,2.45
2019-03-22T04:09:19.989Z,2.35
2019-03-22T04:10:19.874Z,2.48
2019-03-22T04:11:19.724Z,2.44
2019-03-22T04:12:19.592Z,2.41
2019-03-22T04:13:19.461Z,2.33
2019-03-22T04:14:19.329Z,2.31
2019-03-22T04:15:19.285Z,2.28
2019-03-22T04:16:19.067Z,2.35
2019-03-22T04:17:18.931Z,2.31
2019-03-22T04:18:19.599Z,2.31
2019-03-22T04:19:18.668Z,2.41
2019-03-22T04:20:18.537Z,2.33
2019-03-22T04:21:18.404Z,2.28
2019-03-22T04:22:18.277Z,2.27
2019-03-22T04:23:18.139Z,2.33
2019-03-22T04:24:18.008Z,2.31
2019-03-22T04:25:17.890Z,2.28
2019-03-22T04:26:17.789Z,2.31
2019-03-22T04:27:17.612Z,2.31
2019-03-22T04:28:17.480Z,2.28
2019-03-22T04:29:17.345Z,2.34
2019-03-22T04:30:17.214Z,2.38
2019-03-22T04:31:17.129Z,2.35
2019-03-22T04:32:16.952Z,2.27
2019-03-22T04:33:16.819Z,2.41
2019-03-22T04:34:16.685Z,2.41
2019-03-22T04:35:16.553Z,2.40
2019-03-22T04:36:16.420Z,2.48
2019-03-22T04:37:16.307Z,2.44
2019-03-22T04:38:16.158Z,2.48
2019-03-22T04:39:16.026Z,2.51
2019-03-22T04:40:15.893Z,2.48
2019-03-22T04:41:15.764Z,2.40
2019-03-22T04:42:15.641Z,2.30
2019-03-22T04:43:15.498Z,2.31
2019-03-22T04:44:15.371Z,2.31
2019-03-22T04:45:15.236Z,2.27
2019-03-22T04:46:15.102Z,2.30
2019-03-22T04:47:15.598Z,2.23
2019-03-22T04:48:14.838Z,2.19
2019-03-22T04:49:14.703Z,2.35
2019-03-22T04:50:14.570Z,2.23
2019-03-22T04:51:14.584Z,2.19
2019-03-22T04:52:14.314Z,2.22
2019-03-22T04:53:14.225Z,2.20
2019-03-22T04:54:14.043Z,2.15
2019-03-22T04:55:13.910Z,2.22
2019-03-22T04:56:13.781Z,2.19
2019-03-22T04:57:13.647Z,2.34
2019-03-22T04:58:13.520Z,2.26
2019-03-22T04:59:19.097Z,2.33
2019-03-22T05:00:13.248Z,2.41
2019-03-22T05:01:13.118Z,2.35
2019-03-22T05:02:12.985Z,2.33
2019-03-22T05:03:12.853Z,2.38
2019-03-22T05:04:12.720Z,2.34
2019-03-22T05:05:12.592Z,2.31
2019-03-22T05:06:12.457Z,2.28
2019-03-22T05:07:12.325Z,2.33
2019-03-22T05:08:12.192Z,2.45
2019-03-22T05:09:12.060Z,2.51
2019-03-22T05:10:11.926Z,2.55
2019-03-22T05:11:11.803Z,2.40
2019-03-22T05:12:14.152Z,2.46
2019-03-22T05:13:11.532Z,2.45
2019-03-22T05:14:11.400Z,2.52
2019-03-22T05:15:11.266Z,2.61
2019-03-22T05:16:11.628Z,2.48
2019-03-22T05:17:11.019Z,2.48
2019-03-22T05:18:10.870Z,2.48
2019-03-22T05:19:10.739Z,2.52
2019-03-22T05:20:10.608Z,2.51
2019-03-22T05:21:10.474Z,2.45
2019-03-22T05:22:10.345Z,2.61
2019-03-22T05:23:10.208Z,2.59
2019-03-22T05:24:10.080Z,2.56
2019-03-22T05:25:09.945Z,2.58
2019-03-22T05:26:09.815Z,2.58
2019-03-22T05:27:10.679Z,2.52
2019-03-22T05:28:09.549Z,2.49
2019-03-22T05:29:09.416Z,2.48
2019-03-22T05:30:09.286Z,2.55
2019-03-22T05:31:09.152Z,2.46
2019-03-22T05:32:09.021Z,2.56
2019-03-22T05:33:08.887Z,2.64
2019-03-22T05:34:08.768Z,2.58
2019-03-22T05:35:08.625Z,2.58
2019-03-22T05:36:08.490Z,2.64
2019-03-22T05:37:08.359Z,2.61
2019-03-22T05:38:08.225Z,2.56
2019-03-22T05:39:08.092Z,2.55
2019-03-22T05:40:07.964Z,2.74
2019-03-22T05:41:07.843Z,3.02
2019-03-22T05:42:07.700Z,3.13
2019-03-22T05:43:07.567Z,3.02
2019-03-22T05:44:07.441Z,2.87
2019-03-22T05:45:07.636Z,2.89
2019-03-22T05:46:07.170Z,2.76
2019-03-22T05:47:07.039Z,3.02
2019-03-22T05:48:06.905Z,3.36
2019-03-22T05:49:06.774Z,3.30
2019-03-22T05:50:06.643Z,3.40
2019-03-22T05:51:06.511Z,3.27
2019-03-22T05:52:06.378Z,3.06
2019-03-22T05:53:06.245Z,3.07
2019-03-22T05:54:06.195Z,2.85
2019-03-22T05:55:05.985Z,2.79
2019-03-22T05:56:05.851Z,2.74
2019-03-22T05:57:13.176Z,2.84
2019-03-22T05:58:05.588Z,2.89
2019-03-22T05:59:05.457Z,2.74
2019-03-22T06:00:05.324Z,2.76
2019-03-22T06:01:05.189Z,2.67
2019-03-22T06:02:05.060Z,2.61
2019-03-22T06:03:04.931Z,2.56
2019-03-22T06:04:04.795Z,2.56
2019-03-22T06:05:04.661Z,2.49
2019-03-22T06:06:04.530Z,2.51
2019-03-22T06:07:04.429Z,2.46
2019-03-22T06:08:04.272Z,2.51
2019-03-22T06:09:04.231Z,2.55
2019-03-22T06:10:04.002Z,2.56
2019-03-22T06:11:03.936Z,2.63
2019-03-22T06:12:03.746Z,2.64
2019-03-22T06:13:03.618Z,2.64
2019-03-22T06:14:03.720Z,2.69
2019-03-22T06:15:03.344Z,2.69
2019-03-22T06:16:03.331Z,2.73
2019-03-22T06:17:03.126Z,2.66
2019-03-22T06:18:02.998Z,2.76
2019-03-22T06:19:02.867Z,2.74
2019-03-22T06:20:02.774Z,2.88
2019-03-22T06:21:02.562Z,2.97
2019-03-22T06:22:02.455Z,2.98
2019-03-22T06:23:02.405Z,2.98
2019-03-22T06:24:02.290Z,3.12
2019-03-22T06:25:02.159Z,3.09
2019-03-22T06:26:02.142Z,3.25
2019-03-22T06:27:01.827Z,3.34
2019-03-22T06:28:01.692Z,3.33
2019-03-22T06:29:01.573Z,3.49
2019-03-22T06:30:01.403Z,3.50
2019-03-22T06:31:01.233Z,3.54
2019-03-22T06:32:01.110Z,3.79
2019-03-22T06:33:02.472Z,3.78
2019-03-22T06:34:00.841Z,4.01
2019-03-22T06:35:00.709Z,4.16
2019-03-22T06:36:00.594Z,4.29
2019-03-22T06:37:00.447Z,4.42
2019-03-22T06:38:00.314Z,4.54
2019-03-22T06:39:00.193Z,4.62
2019-03-22T06:40:00.054Z,4.73
2019-03-22T06:40:59.921Z,4.79
2019-03-22T06:41:59.790Z,4.79
2019-03-22T06:42:59.811Z,4.86
2019-03-22T06:43:59.532Z,4.76
2019-03-22T06:44:59.396Z,4.94
2019-03-22T06:45:59.268Z,5.02
2019-03-22T06:46:59.140Z,5.31
2019-03-22T06:47:59.006Z,5.41
2019-03-22T06:48:58.880Z,5.49
2019-03-22T06:49:58.746Z,5.74
2019-03-22T06:50:58.614Z,5.89
2019-03-22T06:51:58.488Z,6.18
2019-03-22T06:52:58.357Z,6.30
2019-03-22T06:53:58.233Z,6.47
2019-03-22T06:55:00.008Z,6.68
2019-03-22T06:55:57.967Z,6.62
2019-03-22T06:56:57.836Z,6.65
2019-03-22T06:57:57.734Z,6.76
2019-03-22T06:58:57.581Z,6.80
2019-03-22T07:00:06.488Z,6.76
2019-03-22T07:00:57.320Z,6.77
2019-03-22T07:01:57.188Z,6.80
2019-03-22T07:02:57.060Z,6.86
2019-03-22T07:03:56.933Z,6.98
2019-03-22T07:04:56.804Z,7.02
2019-03-22T07:05:56.673Z,7.15
2019-03-22T07:06:56.544Z,7.20
2019-03-22T07:07:56.417Z,7.19
2019-03-22T07:08:56.285Z,7.15
2019-03-22T07:09:56.162Z,7.09
2019-03-22T07:10:56.029Z,6.91
2019-03-22T07:11:55.901Z,7.16
2019-03-22T07:12:55.773Z,7.23
2019-03-22T07:13:55.707Z,7.41
2019-03-22T07:14:55.515Z,7.49
2019-03-22T07:15:55.386Z,7.55
2019-03-22T07:16:55.257Z,7.53
2019-03-22T07:17:55.128Z,7.69
2019-03-22T07:18:55.000Z,7.69
2019-03-22T07:19:54.873Z,7.72
2019-03-22T07:20:54.747Z,7.92
2019-03-22T07:21:54.616Z,8.03
2019-03-22T07:22:54.492Z,8.11
2019-03-22T07:23:54.364Z,8.18
2019-03-22T07:24:54.236Z,8.44
2019-03-22T07:25:54.108Z,8.44
2019-03-22T07:26:53.981Z,8.65
2019-03-22T07:27:53.859Z,8.90
2019-03-22T07:28:53.722Z,9.05
2019-03-22T07:29:53.597Z,9.20
2019-03-22T07:30:53.470Z,9.31
2019-03-22T07:31:53.344Z,9.38
2019-03-22T07:32:53.214Z,9.27
2019-03-22T07:33:53.088Z,9.42
2019-03-22T07:34:52.962Z,9.49
2019-03-22T07:35:52.835Z,9.53
2019-03-22T07:36:52.709Z,9.66
2019-03-22T07:37:52.581Z,9.70
2019-03-22T07:38:52.456Z,9.75
2019-03-22T07:39:52.329Z,9.83
2019-03-22T07:40:52.202Z,10.04
2019-03-22T07:41:52.082Z,10.06
2019-03-22T07:42:51.949Z,10.04
2019-03-22T07:43:51.822Z,10.18
2019-03-22T07:44:51.697Z,10.18
2019-03-22T07:45:51.572Z,10.32
2019-03-22T07:46:51.446Z,10.44
2019-03-22T07:47:51.319Z,10.42
2019-03-22T07:48:51.195Z,10.37
2019-03-22T07:49:51.068Z,10.39
2019-03-22T07:50:50.945Z,10.39
2019-03-22T07:51:50.821Z,10.51
2019-03-22T07:52:50.695Z,10.56
2019-03-22T07:53:50.564Z,10.55
2019-03-22T07:54:50.441Z,10.62
2019-03-22T07:55:50.314Z,10.68
2019-03-22T07:56:50.191Z,10.89
2019-03-22T07:57:50.069Z,11.20
2019-03-22T07:58:49.941Z,11.24
2019-03-22T07:59:49.816Z,11.17
2019-03-22T08:00:49.690Z,11.24
2019-03-22T08:01:49.566Z,11.02
2019-03-22T08:02:49.442Z,11.02
2019-03-22T08:03:49.315Z,11.01
2019-03-22T08:04:49.188Z,11.25
2019-03-22T08:05:51.481Z,11.17
2019-03-22T08:06:48.940Z,11.01
2019-03-22T08:07:48.816Z,11.06
2019-03-22T08:08:48.693Z,11.17
2019-03-22T08:09:51.177Z,11.29
2019-03-22T08:10:48.541Z,11.27
2019-03-22T08:11:48.411Z,11.14
2019-03-22T08:12:48.196Z,11.20
2019-03-22T08:13:48.070Z,11.21
2019-03-22T08:14:47.947Z,11.21
2019-03-22T08:15:47.816Z,11.36
2019-03-22T08:16:47.696Z,11.36
2019-03-22T08:17:47.570Z,11.21
2019-03-22T08:18:47.445Z,11.39
2019-03-22T08:19:47.323Z,11.47
2019-03-22T08:20:47.196Z,11.65
2019-03-22T08:21:47.075Z,11.80
2019-03-22T08:22:46.945Z,11.94
2019-03-22T08:23:46.821Z,12.24
2019-03-22T08:24:46.696Z,12.37
2019-03-22T08:25:46.573Z,12.44
2019-03-22T08:26:46.468Z,12.30
2019-03-22T08:27:46.367Z,12.54
2019-03-22T08:28:46.218Z,12.71
2019-03-22T08:29:46.076Z,12.84
2019-03-22T08:30:45.956Z,13.03
2019-03-22T08:31:45.829Z,12.99
2019-03-22T08:32:45.704Z,12.97
2019-03-22T08:33:45.597Z,12.85
2019-03-22T08:34:47.622Z,12.78
2019-03-22T08:35:45.334Z,12.87
2019-03-22T08:36:45.244Z,12.89
2019-03-22T08:37:52.414Z,12.85
2019-03-22T08:38:44.973Z,12.85
2019-03-22T08:39:44.838Z,12.87
2019-03-22T08:40:44.716Z,12.67
2019-03-22T08:41:44.592Z,12.38
2019-03-22T08:42:44.514Z,12.46
2019-03-22T08:43:44.390Z,12.45
2019-03-22T08:44:44.248Z,12.78
2019-03-22T08:45:44.135Z,12.89
2019-03-22T08:46:45.084Z,13.02
2019-03-22T08:47:43.854Z,13.06
2019-03-22T08:48:43.729Z,12.97
2019-03-22T08:49:43.784Z,12.96
2019-03-22T08:50:43.480Z,13.03
2019-03-22T08:51:43.365Z,12.84
2019-03-22T08:52:43.237Z,13.09
2019-03-22T08:53:54.708Z,13.38
2019-03-22T08:54:43.054Z,13.58
2019-03-22T08:55:42.864Z,13.59
2019-03-22T08:56:42.742Z,13.74
2019-03-22T08:57:42.619Z,14.04
2019-03-22T08:58:42.525Z,14.04
2019-03-22T08:59:42.374Z,13.99
2019-03-22T09:00:56.392Z,13.99
2019-03-22T09:01:42.142Z,13.80
2019-03-22T09:02:42.020Z,13.59
2019-03-22T09:03:41.881Z,13.73
2019-03-22T09:04:41.804Z,13.89
2019-03-22T09:05:41.638Z,14.14
2019-03-22T09:06:41.514Z,14.06
2019-03-22T09:07:41.458Z,14.06
2019-03-22T09:08:42.020Z,13.98
2019-03-22T09:09:41.978Z,13.63
2019-03-22T09:10:41.046Z,13.76
2019-03-22T09:11:40.905Z,13.56
2019-03-22T09:12:40.803Z,13.56
2019-03-22T09:13:40.658Z,13.65
2019-03-22T09:14:40.537Z,13.98
2019-03-22T09:15:41.541Z,13.95
2019-03-22T09:16:40.289Z,14.04
2019-03-22T09:17:40.195Z,14.20
2019-03-22T09:18:40.043Z,14.35
2019-03-22T09:19:39.925Z,14.44
2019-03-22T09:20:39.802Z,14.24
2019-03-22T09:21:39.683Z,14.39
2019-03-22T09:22:39.561Z,14.71
2019-03-22T09:23:39.462Z,15.02
2019-03-22T09:24:39.702Z,15.27
2019-03-22T09:25:39.190Z,15.27
2019-03-22T09:26:47.666Z,15.27
2019-03-22T09:27:38.947Z,15.30
2019-03-22T09:28:38.825Z,15.28
2019-03-22T09:29:38.703Z,15.17
2019-03-22T09:30:38.583Z,15.17
2019-03-22T09:31:38.462Z,15.46
2019-03-22T09:32:38.393Z,15.81
2019-03-22T09:33:38.222Z,15.66
2019-03-22T09:34:38.115Z,16.00
2019-03-22T09:35:37.974Z,15.60
2019-03-22T09:36:37.874Z,15.23
2019-03-22T09:37:38.078Z,15.49
2019-03-22T09:38:37.608Z,15.72
2019-03-22T09:39:37.488Z,15.72
2019-03-22T09:40:37.375Z,15.78
2019-03-22T09:41:37.245Z,15.74
2019-03-22T09:42:37.131Z,15.48
2019-03-22T09:43:37.004Z,15.28
2019-03-22T09:44:43.312Z,15.30
2019-03-22T09:45:36.762Z,15.17
2019-03-22T09:46:36.653Z,15.27
2019-03-22T09:47:36.518Z,15.35
2019-03-22T09:48:36.414Z,15.54
2019-03-22T09:49:36.356Z,15.75
2019-03-22T09:50:36.156Z,15.61
2019-03-22T09:51:36.075Z,15.57
2019-03-22T09:52:35.916Z,15.61
2019-03-22T09:53:35.791Z,15.56
2019-03-22T09:54:35.671Z,15.76
2019-03-22T09:55:35.566Z,15.75
2019-03-22T09:56:46.486Z,15.70
2019-03-22T09:57:35.353Z,15.96
2019-03-22T09:58:35.186Z,16.12
2019-03-22T09:59:35.098Z,16.15
2019-03-22T10:00:34.949Z,16.35
2019-03-22T10:01:34.826Z,16.75
2019-03-22T10:02:34.755Z,16.85
2019-03-22T10:03:34.583Z,16.90
2019-03-22T10:04:34.493Z,16.88
2019-03-22T10:05:34.409Z,16.52
2019-03-22T10:06:34.222Z,16.40
2019-03-22T10:07:34.102Z,16.60
2019-03-22T10:08:34.073Z,16.37
2019-03-22T10:09:33.920Z,16.16
2019-03-22T10:10:33.773Z,16.23
2019-03-22T10:11:33.650Z,16.23
2019-03-22T10:12:33.551Z,16.25
2019-03-22T10:13:33.376Z,16.18
2019-03-22T10:14:33.273Z,16.35
2019-03-22T10:15:33.137Z,16.60
2019-03-22T10:16:33.013Z,16.68
2019-03-22T10:17:32.895Z,16.34
2019-03-22T10:18:32.788Z,16.45
2019-03-22T10:19:32.700Z,16.26
2019-03-22T10:20:32.534Z,16.35
2019-03-22T10:21:32.417Z,16.70
2019-03-22T10:22:32.292Z,16.80
2019-03-22T10:23:32.227Z,16.93
2019-03-22T10:24:32.085Z,16.96
2019-03-22T10:25:31.942Z,16.85
2019-03-22T10:26:31.811Z,16.96
2019-03-22T10:27:31.889Z,16.81
2019-03-22T10:28:31.629Z,16.83
2019-03-22T10:29:31.448Z,17.32
2019-03-22T10:30:31.330Z,17.40
2019-03-22T10:31:36.977Z,17.71
2019-03-22T10:32:31.098Z,17.62
2019-03-22T10:33:31.009Z,17.57
2019-03-22T10:34:30.887Z,17.74
2019-03-22T10:35:30.733Z,18.18
2019-03-22T10:36:30.674Z,18.15
2019-03-22T10:37:30.527Z,18.37
2019-03-22T10:38:31.795Z,17.81
2019-03-22T10:39:30.251Z,18.19
2019-03-22T10:40:30.165Z,18.43
2019-03-22T10:41:30.051Z,18.39
2019-03-22T10:42:29.892Z,18.00
2019-03-22T10:43:29.884Z,17.81
2019-03-22T10:44:29.700Z,17.57
2019-03-22T10:45:29.560Z,17.81
2019-03-22T10:46:29.475Z,18.27
2019-03-22T10:47:29.334Z,18.10
2019-03-22T10:48:29.248Z,18.46
2019-03-22T10:49:29.058Z,18.34
2019-03-22T10:50:28.941Z,18.58
2019-03-22T10:51:28.820Z,18.72
2019-03-22T10:52:28.733Z,18.44
2019-03-22T10:53:28.603Z,18.39
2019-03-22T10:54:28.462Z,18.42
2019-03-22T10:55:30.171Z,18.17
2019-03-22T10:56:28.227Z,17.82
2019-03-22T10:57:28.118Z,17.94
2019-03-22T10:58:27.989Z,18.19
2019-03-22T10:59:27.867Z,18.15
2019-03-22T11:00:27.751Z,18.21
2019-03-22T11:01:27.631Z,18.47
2019-03-22T11:02:27.514Z,18.59
2019-03-22T11:03:27.439Z,18.61
2019-03-22T11:04:27.273Z,18.43
2019-03-22T11:05:28.108Z,18.77
2019-03-22T11:06:27.042Z,18.80
2019-03-22T11:07:26.918Z,18.58
2019-03-22T11:08:26.803Z,18.43
2019-03-22T11:09:26.680Z,18.44
2019-03-22T11:10:26.560Z,18.44
2019-03-22T11:11:26.441Z,18.68
2019-03-22T11:12:26.324Z,19.02
2019-03-22T11:13:26.205Z,18.34
2019-03-22T11:14:26.087Z,18.04
2019-03-22T11:15:25.971Z,17.78
2019-03-22T11:16:25.851Z,18.03
2019-03-22T11:17:25.729Z,18.21
2019-03-22T11:18:25.613Z,18.77
2019-03-22T11:19:25.494Z,18.50
2019-03-22T11:20:25.371Z,18.47
2019-03-22T11:21:25.257Z,18.46
2019-03-22T11:22:25.136Z,18.43
2019-03-22T11:23:25.031Z,18.67
2019-03-22T11:24:24.899Z,19.05
2019-03-22T11:25:24.784Z,19.33
2019-03-22T11:26:24.666Z,18.83
2019-03-22T11:27:24.545Z,19.15
2019-03-22T11:28:24.426Z,19.47
2019-03-22T11:29:24.307Z,19.31
2019-03-22T11:30:24.189Z,19.38
2019-03-22T11:31:28.693Z,19.54
2019-03-22T11:32:23.951Z,19.84
2019-03-22T11:33:23.835Z,20.20
2019-03-22T11:34:24.085Z,20.03
2019-03-22T11:35:23.597Z,20.00
2019-03-22T11:36:23.480Z,19.35
2019-03-22T11:37:23.361Z,19.50
2019-03-22T11:38:23.249Z,19.55
2019-03-22T11:39:23.126Z,19.57
2019-03-22T11:40:23.009Z,19.79
2019-03-22T11:41:22.889Z,19.83
2019-03-22T11:42:22.774Z,20.02
2019-03-22T11:43:22.657Z,20.12
2019-03-22T11:44:22.539Z,19.87
2019-03-22T11:45:24.511Z,19.35
2019-03-22T11:46:22.302Z,19.39
2019-03-22T11:47:22.184Z,19.35
2019-03-22T11:48:22.070Z,19.68
2019-03-22T11:49:21.947Z,19.91
2019-03-22T11:50:21.829Z,20.00
2019-03-22T11:51:21.710Z,19.88
2019-03-22T11:52:21.597Z,19.86
2019-03-22T11:53:21.475Z,19.88
2019-03-22T11:54:21.358Z,19.94
2019-03-22T11:55:21.237Z,20.03
2019-03-22T11:56:21.121Z,20.09
2019-03-22T11:57:21.000Z,19.66
2019-03-22T11:58:20.887Z,19.86
2019-03-22T11:59:20.767Z,19.93
2019-03-22T12:00:20.650Z,19.91
2019-03-22T12:01:22.553Z,19.55
2019-03-22T12:02:22.628Z,19.38
2019-03-22T12:03:20.299Z,19.63
2019-03-22T12:04:20.175Z,19.80
2019-03-22T12:05:20.057Z,19.90
2019-03-22T12:06:19.942Z,19.78
2019-03-22T12:07:19.824Z,19.72
2019-03-22T12:08:19.706Z,19.72
2019-03-22T12:09:19.590Z,19.86
2019-03-22T12:10:19.469Z,19.98
2019-03-22T12:11:19.351Z,20.39
2019-03-22T12:12:19.234Z,20.23
2019-03-22T12:13:19.120Z,20.49
2019-03-22T12:14:18.996Z,20.72
2019-03-22T12:15:18.878Z,20.58
2019-03-22T12:16:18.759Z,20.25
2019-03-22T12:17:18.643Z,20.38
2019-03-22T12:18:18.528Z,20.41
2019-03-22T12:19:18.408Z,20.02
2019-03-22T12:20:18.289Z,19.70
2019-03-22T12:21:18.176Z,19.98
2019-03-22T12:22:18.057Z,19.93
2019-03-22T12:23:17.939Z,20.39
2019-03-22T12:24:18.729Z,20.54
2019-03-22T12:25:17.707Z,20.76
2019-03-22T12:26:17.588Z,21.11
2019-03-22T12:27:17.477Z,21.35
2019-03-22T12:28:17.351Z,21.23
2019-03-22T12:29:17.234Z,21.19
2019-03-22T12:30:17.118Z,21.09
2019-03-22T12:31:17.001Z,20.98
2019-03-22T12:32:16.946Z,21.30
2019-03-22T12:33:16.797Z,20.98
2019-03-22T12:34:16.780Z,20.90
2019-03-22T12:35:16.533Z,20.51
2019-03-22T12:36:16.613Z,20.23
2019-03-22T12:37:16.324Z,20.33
2019-03-22T12:38:16.321Z,20.25
2019-03-22T12:39:16.070Z,20.41
2019-03-22T12:40:15.953Z,20.77
2019-03-22T12:41:15.967Z,20.81
2019-03-22T12:42:15.834Z,21.14
2019-03-22T12:43:15.704Z,21.06
2019-03-22T12:44:15.472Z,21.09
2019-03-22T12:45:15.362Z,21.29
2019-03-22T12:46:15.310Z,20.65
2019-03-22T12:47:15.116Z,20.71
2019-03-22T12:48:14.998Z,21.23
2019-03-22T12:49:14.880Z,20.83
2019-03-22T12:50:14.768Z,20.62
2019-03-22T12:51:14.647Z,20.53
2019-03-22T12:52:14.526Z,20.50
2019-03-22T12:53:14.408Z,20.34
2019-03-22T12:54:14.298Z,20.33
2019-03-22T12:55:14.181Z,20.27
2019-03-22T12:56:14.056Z,20.35
2019-03-22T12:57:13.938Z,19.87
2019-03-22T12:58:13.823Z,20.27
2019-03-22T12:59:13.700Z,20.06
2019-03-22T13:00:13.590Z,19.69
2019-03-22T13:01:13.464Z,20.03
2019-03-22T13:02:14.201Z,20.41
2019-03-22T13:03:13.232Z,20.54
2019-03-22T13:04:13.112Z,20.89
2019-03-22T13:05:13.033Z,21.21
2019-03-22T13:06:12.878Z,21.45